Terminal Aerodrome Forecast
Issued by NWS

Current Version | Previous Version | Graphics & Text | Print | Product List | Glossary On
Versions: 1 2 3 4 5 6 7 8 9 10 11 12 13 14
000
FTUS41 KRNK 200724 AAA
TAFLWB
TAF AMD
KLWB 200724Z 2007/2106 VRB03KT 3SM BR OVC001
      TEMPO 2008/2010 1/4SM FG
     FM201300 00000KT P6SM FEW250
     FM201600 27008KT P6SM FEW140=

USA.gov is the U.S. government's official web portal to all federal, state and local government web resources and services.